createdAt,value
2023-04-13T00:03:33.819Z,96841.09
2023-04-13T00:13:43.278Z,96844.47
2023-04-13T00:23:45.506Z,96836.38
2023-04-13T00:33:48.152Z,96846.72
2023-04-13T00:43:51.296Z,96842.03
2023-04-13T00:53:53.808Z,96844.09
2023-04-13T01:03:57.591Z,96828.72
2023-04-13T01:14:20.427Z,96832.19
2023-04-13T01:24:44.299Z,96825.19
2023-04-13T01:34:47.172Z,96830.81
2023-04-13T01:44:49.641Z,96834.09
2023-04-13T01:54:53.283Z,96811.28
2023-04-13T02:04:58.269Z,96824.25
2023-04-13T02:15:01.503Z,96821.66
2023-04-13T02:25:03.756Z,96837.41
2023-04-13T02:35:06.134Z,96837.03
2023-04-13T02:45:12.423Z,96834.16
2023-04-13T02:55:14.551Z,96815.87
2023-04-13T03:05:16.938Z,96806.03
2023-04-13T03:15:19.175Z,96813.16
2023-04-13T03:25:21.643Z,96821.44
2023-04-13T03:35:23.873Z,96837.75
2023-04-13T03:45:26.231Z,96842.84
2023-04-13T03:55:28.410Z,96846.13
2023-04-13T04:05:30.582Z,96851.06
2023-04-13T04:15:32.588Z,96866.94
2023-04-13T04:25:37.158Z,96862.72
2023-04-13T04:35:43.596Z,96868.91
2023-04-13T04:45:47.322Z,96871.47
2023-04-13T04:55:49.639Z,96877.50
2023-04-13T05:05:52.024Z,96885.28
2023-04-13T05:15:54.286Z,96909.03
2023-04-13T05:25:57.142Z,96909.91
2023-04-13T05:36:03.664Z,96920.09
2023-04-13T05:46:06.862Z,96936.59
2023-04-13T05:56:09.346Z,96945.75
2023-04-13T06:06:11.946Z,96957.94
2023-04-13T06:16:14.079Z,96957.59
2023-04-13T06:26:18.275Z,96940.72
2023-04-13T06:36:20.412Z,96932.34
2023-04-13T06:46:22.875Z,96912.19
2023-04-13T06:56:25.422Z,96901.50
2023-04-13T07:06:27.949Z,96903.78
2023-04-13T07:16:30.166Z,96902.28
2023-04-13T07:26:32.633Z,96901.81
2023-04-13T07:36:35.153Z,96902.41
2023-04-13T07:46:38.636Z,96912.53
2023-04-13T07:56:41.155Z,96915.09
2023-04-13T08:06:43.616Z,96909.81
2023-04-13T08:16:47.000Z,96924.03
2023-04-13T08:26:49.266Z,96929.72
2023-04-13T08:36:51.694Z,96914.69
2023-04-13T08:46:54.366Z,96924.81
2023-04-13T08:56:58.194Z,96915.25
2023-04-13T09:07:01.395Z,96912.63
2023-04-13T09:17:07.007Z,96910.75
2023-04-13T09:27:23.836Z,96904.09
2023-04-13T09:37:28.765Z,96907.47
2023-04-13T09:47:40.921Z,96905.31
2023-04-13T09:57:43.709Z,96901.09
2023-04-13T10:07:47.103Z,96901.97
2023-04-13T10:18:02.708Z,96893.47
2023-04-13T10:28:05.343Z,96923.63
2023-04-13T10:38:09.540Z,96913.75
2023-04-13T10:48:21.652Z,96915.47
2023-04-13T10:58:24.697Z,96896.47
2023-04-13T11:08:28.681Z,96908.84
2023-04-13T11:18:31.567Z,96907.37
2023-04-13T11:28:44.103Z,96906.44
2023-04-13T11:38:48.502Z,96891.09
2023-04-13T11:48:52.858Z,96875.00
2023-04-13T11:58:55.964Z,96857.38
2023-04-13T12:09:09.028Z,96870.00
2023-04-13T12:19:14.047Z,96874.19
2023-04-13T12:29:22.363Z,96870.09
2023-04-13T12:39:24.859Z,96863.13
2023-04-13T12:49:27.393Z,96858.94
2023-04-13T12:59:29.826Z,96853.69
2023-04-13T13:09:33.025Z,96850.84
2023-04-13T13:19:35.471Z,96847.63
2023-04-13T13:29:38.148Z,96831.37
2023-04-13T13:39:41.669Z,96839.13
2023-04-13T13:49:44.323Z,96857.34
2023-04-13T13:59:49.289Z,96849.91
2023-04-13T14:09:52.357Z,96841.66
2023-04-13T14:19:54.878Z,96831.59
2023-04-13T14:29:57.516Z,96832.38
2023-04-13T14:40:00.021Z,96831.94
2023-04-13T14:50:02.612Z,96835.44
2023-04-13T15:00:09.234Z,96840.81
2023-04-13T15:10:11.866Z,96835.91
2023-04-13T15:20:14.676Z,96830.16
2023-04-13T15:30:17.535Z,96824.03
2023-04-13T15:40:20.344Z,96827.47
2023-04-13T15:50:22.942Z,96837.66
2023-04-13T16:00:26.697Z,96828.97
2023-04-13T16:10:29.360Z,96826.06
2023-04-13T16:20:32.881Z,96837.37
2023-04-13T16:30:35.545Z,96842.97
2023-04-13T16:40:38.204Z,96839.91
2023-04-13T16:50:41.113Z,96838.19
2023-04-13T17:00:44.240Z,96840.91
2023-04-13T17:10:47.093Z,96841.00
2023-04-13T17:20:56.110Z,96843.31
2023-04-13T17:30:58.540Z,96841.50
2023-04-13T17:41:01.447Z,96843.56
2023-04-13T17:51:04.180Z,96851.31
2023-04-13T18:01:09.845Z,96867.81
2023-04-13T18:11:12.511Z,96866.78
2023-04-13T18:21:17.111Z,96863.44
2023-04-13T18:31:19.871Z,96884.63
2023-04-13T18:41:22.584Z,96889.19
2023-04-13T18:51:25.050Z,96904.78
2023-04-13T19:01:27.776Z,96922.75
2023-04-13T19:11:46.094Z,96934.06
2023-04-13T19:21:48.767Z,96944.53
2023-04-13T19:31:51.204Z,96954.16
2023-04-13T19:41:54.771Z,96969.94
2023-04-13T19:51:57.492Z,96975.75
2023-04-13T20:02:00.206Z,96988.81
2023-04-13T20:12:02.901Z,96993.84
2023-04-13T20:22:05.467Z,96985.13
2023-04-13T20:32:07.976Z,96997.84
2023-04-13T20:42:11.956Z,96989.00
2023-04-13T20:52:14.415Z,97001.31
2023-04-13T21:02:16.960Z,97002.75
2023-04-13T21:12:19.558Z,97013.97
2023-04-13T21:22:22.306Z,97016.00
2023-04-13T21:32:24.873Z,97024.59
2023-04-13T21:42:27.277Z,97024.47
2023-04-13T21:52:29.716Z,97027.91
2023-04-13T22:02:32.378Z,97025.75
2023-04-13T22:12:35.214Z,97025.03
2023-04-13T22:22:37.858Z,97009.53
2023-04-13T22:32:42.020Z,97025.09
2023-04-13T22:42:44.756Z,97017.62
2023-04-13T22:52:47.331Z,97022.41
2023-04-13T23:02:52.451Z,97019.59
2023-04-13T23:12:54.982Z,97018.34
2023-04-13T23:22:57.415Z,97022.09
2023-04-13T23:32:59.890Z,97029.56
2023-04-13T23:43:02.425Z,97031.38
2023-04-13T23:53:04.731Z,97038.94
